createdAt,value
2023-01-28T00:00:09.244Z,2.20
2023-01-28T00:02:37.430Z,4.00
2023-01-28T00:05:07.545Z,3.60
2023-01-28T00:07:36.130Z,3.60
2023-01-28T00:10:04.799Z,0.80
2023-01-28T00:12:32.914Z,0.80
2023-01-28T00:15:02.414Z,1.40
2023-01-28T00:17:30.887Z,1.00
2023-01-28T00:19:58.922Z,1.40
2023-01-28T00:22:27.004Z,1.80
2023-01-28T00:24:55.167Z,3.00
2023-01-28T00:27:23.625Z,3.60
2023-01-28T00:29:51.623Z,3.00
2023-01-28T00:32:21.034Z,2.60
2023-01-28T00:34:50.209Z,0.80
2023-01-28T00:37:18.933Z,2.20
2023-01-28T00:39:46.911Z,3.00
2023-01-28T00:42:15.314Z,1.80
2023-01-28T00:44:43.363Z,1.40
2023-01-28T00:47:12.461Z,1.00
2023-01-28T00:49:41.900Z,1.00
2023-01-28T00:52:09.967Z,1.00
2023-01-28T00:54:37.921Z,1.00
2023-01-28T00:57:05.915Z,3.00
2023-01-28T00:59:34.340Z,3.00
2023-01-28T01:02:12.435Z,3.00
2023-01-28T01:04:55.316Z,3.60
2023-01-28T01:07:32.235Z,3.60
2023-01-28T01:10:01.040Z,3.00
2023-01-28T01:12:29.120Z,3.40
2023-01-28T01:14:57.391Z,4.00
2023-01-28T01:17:25.951Z,3.00
2023-01-28T01:19:55.295Z,3.00
2023-01-28T01:22:23.286Z,4.00
2023-01-28T01:24:51.262Z,3.00
2023-01-28T01:27:19.510Z,0.60
2023-01-28T01:29:47.610Z,3.00
2023-01-28T01:32:15.623Z,4.00
2023-01-28T01:34:44.158Z,3.80
2023-01-28T01:37:13.725Z,2.60
2023-01-28T01:39:41.761Z,3.20
2023-01-28T01:42:11.906Z,3.00
2023-01-28T01:44:59.516Z,3.00
2023-01-28T01:47:31.157Z,3.00
2023-01-28T01:49:59.899Z,4.00
2023-01-28T01:52:33.728Z,2.60
2023-01-28T01:55:03.148Z,1.80
2023-01-28T01:57:32.210Z,4.00
2023-01-28T02:00:06.351Z,4.00
2023-01-28T02:02:39.558Z,0.00
2023-01-28T02:05:08.673Z,4.00
2023-01-28T02:07:38.105Z,1.40
2023-01-28T02:10:07.075Z,1.00
2023-01-28T02:12:36.288Z,3.00
2023-01-28T02:15:05.484Z,2.60
2023-01-28T02:17:33.565Z,3.20
2023-01-28T02:20:02.834Z,2.20
2023-01-28T02:22:51.797Z,3.00
2023-01-28T02:25:38.867Z,2.60
2023-01-28T02:28:19.661Z,4.00
2023-01-28T02:30:53.274Z,3.00
2023-01-28T02:33:24.738Z,4.00
2023-01-28T02:35:54.547Z,3.00
2023-01-28T02:38:27.229Z,1.00
2023-01-28T02:41:06.543Z,2.60
2023-01-28T02:43:36.866Z,4.00
2023-01-28T02:46:30.857Z,3.40
2023-01-28T02:48:58.917Z,3.60
2023-01-28T02:51:33.195Z,2.60
2023-01-28T02:54:04.490Z,3.00
2023-01-28T02:56:34.137Z,2.60
2023-01-28T02:59:26.307Z,3.00
2023-01-28T03:01:58.473Z,1.80
2023-01-28T03:04:29.706Z,1.00
2023-01-28T03:06:59.871Z,2.60
2023-01-28T03:09:28.032Z,3.60
2023-01-28T03:12:15.247Z,3.20
2023-01-28T03:15:03.195Z,1.00
2023-01-28T03:17:51.774Z,1.00
2023-01-28T03:20:37.502Z,4.00
2023-01-28T03:23:26.613Z,0.00
2023-01-28T03:26:12.741Z,3.20
2023-01-28T03:28:58.341Z,1.00
2023-01-28T03:31:45.584Z,4.00
2023-01-28T03:34:30.759Z,3.20
2023-01-28T03:36:59.856Z,3.00
2023-01-28T03:39:28.761Z,3.00
2023-01-28T03:41:58.051Z,1.00
2023-01-28T03:44:43.489Z,3.20
2023-01-28T03:47:12.972Z,3.40
2023-01-28T03:49:42.484Z,2.60
2023-01-28T03:52:10.491Z,2.20
2023-01-28T03:54:38.484Z,3.00
2023-01-28T03:57:07.237Z,0.00
2023-01-28T03:59:35.446Z,0.40
2023-01-28T04:02:05.540Z,3.00
2023-01-28T04:04:34.941Z,3.20
2023-01-28T04:07:03.047Z,1.80
2023-01-28T04:09:31.021Z,2.60
2023-01-28T04:11:59.097Z,3.00
2023-01-28T04:14:28.080Z,1.00
2023-01-28T04:16:56.196Z,3.80
2023-01-28T04:19:24.284Z,1.00
2023-01-28T04:21:55.107Z,1.00
2023-01-28T04:24:23.172Z,3.00
2023-01-28T04:26:51.301Z,3.00
2023-01-28T04:29:19.370Z,3.00
2023-01-28T04:31:47.450Z,3.40
2023-01-28T04:34:15.546Z,1.00
2023-01-28T04:36:43.632Z,3.00
2023-01-28T04:39:13.078Z,2.20
2023-01-28T04:41:41.123Z,3.40
2023-01-28T04:44:09.342Z,0.00
2023-01-28T04:46:37.332Z,2.20
2023-01-28T04:49:05.406Z,2.20
2023-01-28T04:51:33.469Z,1.00
2023-01-28T04:54:01.604Z,3.00
2023-01-28T04:56:30.995Z,2.60
2023-01-28T04:58:59.088Z,3.00
2023-01-28T05:01:27.368Z,3.40
2023-01-28T05:03:55.444Z,1.40
2023-01-28T05:06:23.456Z,2.60
2023-01-28T05:08:51.552Z,3.20
2023-01-28T05:11:19.548Z,2.60
2023-01-28T05:13:48.972Z,0.80
2023-01-28T05:16:17.395Z,1.80
2023-01-28T05:18:48.069Z,1.00
2023-01-28T05:21:16.118Z,2.20
2023-01-28T05:23:44.163Z,0.60
2023-01-28T05:26:13.762Z,3.00
2023-01-28T05:28:41.819Z,3.00
2023-01-28T05:31:11.312Z,1.00
2023-01-28T05:33:39.426Z,2.20
2023-01-28T05:36:08.464Z,3.00
2023-01-28T05:38:36.494Z,0.00
2023-01-28T05:41:04.653Z,3.00
2023-01-28T05:43:32.743Z,0.00
2023-01-28T05:46:01.075Z,2.60
2023-01-28T05:48:30.543Z,3.00
2023-01-28T05:50:58.649Z,3.00
2023-01-28T05:53:30.066Z,1.80
2023-01-28T05:55:58.049Z,3.00
2023-01-28T05:58:27.448Z,3.00
2023-01-28T06:00:56.512Z,1.40
2023-01-28T06:03:24.494Z,0.00
2023-01-28T06:05:53.934Z,1.40
2023-01-28T06:08:21.924Z,1.00
2023-01-28T06:10:49.954Z,3.20
2023-01-28T06:13:18.053Z,1.00
2023-01-28T06:15:46.138Z,2.20
2023-01-28T06:18:14.223Z,1.80
2023-01-28T06:20:42.615Z,4.00
2023-01-28T06:23:13.137Z,1.40
2023-01-28T06:25:41.103Z,3.00
2023-01-28T06:28:09.134Z,6.00
2023-01-28T06:30:37.220Z,3.40
2023-01-28T06:33:05.377Z,1.80
2023-01-28T06:35:36.084Z,4.00
2023-01-28T06:38:05.253Z,4.00
2023-01-28T06:40:35.218Z,4.00
2023-01-28T06:43:05.927Z,3.00
2023-01-28T06:45:34.154Z,3.00
2023-01-28T06:48:04.063Z,4.00
2023-01-28T06:50:32.337Z,4.00
2023-01-28T06:53:02.726Z,2.60
2023-01-28T06:55:30.838Z,3.00
2023-01-28T06:58:00.152Z,3.00
2023-01-28T07:00:28.221Z,6.00
2023-01-28T07:02:57.160Z,4.00
2023-01-28T07:05:25.246Z,4.80
2023-01-28T07:07:53.360Z,3.00
2023-01-28T07:10:21.322Z,1.00
2023-01-28T07:12:49.404Z,6.60
2023-01-28T07:15:19.497Z,3.60
2023-01-28T07:17:47.629Z,1.00
2023-01-28T07:20:16.156Z,3.00
2023-01-28T07:22:44.959Z,4.40
2023-01-28T07:25:13.257Z,1.00
2023-01-28T07:27:41.370Z,6.00
2023-01-28T07:30:10.797Z,1.80
2023-01-28T07:32:40.645Z,3.20
2023-01-28T07:35:09.599Z,4.40
2023-01-28T07:37:37.631Z,3.00
2023-01-28T07:40:06.374Z,3.00
2023-01-28T07:42:35.220Z,6.00
2023-01-28T07:45:05.156Z,4.80
2023-01-28T07:47:33.962Z,6.00
2023-01-28T07:50:05.421Z,3.40
2023-01-28T07:52:38.246Z,4.80
2023-01-28T07:55:07.086Z,4.00
2023-01-28T07:57:35.663Z,4.00
2023-01-28T08:00:03.847Z,3.80
2023-01-28T08:02:34.267Z,0.00
2023-01-28T08:05:03.877Z,6.00
2023-01-28T08:07:32.190Z,0.00
2023-01-28T08:10:00.170Z,1.80
2023-01-28T08:12:28.177Z,3.00
2023-01-28T08:14:56.395Z,1.40
2023-01-28T08:17:24.494Z,2.60
2023-01-28T08:19:52.935Z,5.20
2023-01-28T08:22:26.134Z,3.00
2023-01-28T08:24:54.204Z,4.00
2023-01-28T08:27:22.745Z,5.20
2023-01-28T08:29:50.838Z,3.00
2023-01-28T08:32:19.498Z,4.00
2023-01-28T08:34:47.654Z,0.60
2023-01-28T08:37:15.778Z,2.60
2023-01-28T08:39:46.486Z,4.80
2023-01-28T08:42:14.588Z,3.00
2023-01-28T08:44:42.793Z,3.80
2023-01-28T08:47:12.281Z,3.00
2023-01-28T08:49:42.013Z,3.00
2023-01-28T08:52:11.111Z,3.00
2023-01-28T08:54:39.928Z,1.00
2023-01-28T08:57:09.410Z,1.00
2023-01-28T08:59:40.782Z,1.40
2023-01-28T09:02:19.119Z,6.60
2023-01-28T09:04:53.907Z,0.60
2023-01-28T09:07:21.980Z,3.00
2023-01-28T09:09:50.003Z,1.00
2023-01-28T09:12:19.518Z,4.00
2023-01-28T09:14:48.221Z,4.00
2023-01-28T09:17:16.571Z,1.00
2023-01-28T09:19:44.635Z,4.40
2023-01-28T09:22:12.942Z,3.60
2023-01-28T09:24:41.032Z,4.00
2023-01-28T09:27:09.099Z,1.00
2023-01-28T09:29:38.811Z,4.00
2023-01-28T09:32:07.583Z,2.20
2023-01-28T09:34:36.357Z,3.40
2023-01-28T09:37:05.073Z,5.60
2023-01-28T09:39:33.276Z,3.00
2023-01-28T09:42:14.480Z,3.00
2023-01-28T09:44:53.637Z,4.00
2023-01-28T09:47:24.257Z,4.80
2023-01-28T09:49:53.373Z,4.00
2023-01-28T09:52:23.166Z,4.00
2023-01-28T09:54:51.881Z,3.20
2023-01-28T09:57:22.275Z,3.00
2023-01-28T09:59:51.763Z,4.40
2023-01-28T10:02:39.014Z,6.00
2023-01-28T10:05:15.644Z,4.00
2023-01-28T10:07:47.135Z,3.20
2023-01-28T10:10:22.999Z,4.00
2023-01-28T10:13:13.082Z,1.80
2023-01-28T10:16:07.016Z,1.00
2023-01-28T10:18:36.947Z,3.00
2023-01-28T10:21:09.265Z,4.00
2023-01-28T10:23:43.007Z,1.00
2023-01-28T10:26:16.702Z,6.00
2023-01-28T10:28:44.911Z,3.80
2023-01-28T10:31:15.391Z,1.00
2023-01-28T10:33:44.042Z,3.80
2023-01-28T10:36:12.428Z,3.00
2023-01-28T10:38:41.457Z,5.80
2023-01-28T10:41:11.790Z,6.80
2023-01-28T10:43:40.895Z,3.00
2023-01-28T10:46:11.413Z,6.00
2023-01-28T10:48:44.253Z,6.00
2023-01-28T10:51:12.282Z,4.00
2023-01-28T10:53:41.479Z,3.60
2023-01-28T10:56:10.651Z,3.00
2023-01-28T10:58:50.639Z,3.00
2023-01-28T11:01:18.706Z,3.60
2023-01-28T11:03:55.780Z,5.20
2023-01-28T11:06:27.837Z,6.00
2023-01-28T11:08:55.818Z,5.20
2023-01-28T11:11:25.811Z,4.00
2023-01-28T11:13:55.599Z,4.00
2023-01-28T11:16:23.632Z,5.60
2023-01-28T11:18:53.294Z,6.00
2023-01-28T11:21:23.753Z,3.60
2023-01-28T11:23:52.805Z,3.40
2023-01-28T11:26:22.523Z,4.00
2023-01-28T11:28:50.827Z,7.00
2023-01-28T11:31:19.315Z,7.00
2023-01-28T11:33:49.614Z,5.60
2023-01-28T11:36:18.387Z,5.60
2023-01-28T11:38:52.467Z,3.00
2023-01-28T11:41:24.355Z,4.00
2023-01-28T11:43:52.950Z,4.00
2023-01-28T11:46:46.767Z,6.20
2023-01-28T11:49:17.905Z,4.40
2023-01-28T11:51:48.699Z,6.80
2023-01-28T11:54:27.228Z,6.00
2023-01-28T11:57:03.094Z,1.00
2023-01-28T11:59:45.376Z,4.00
2023-01-28T12:02:22.732Z,3.00
2023-01-28T12:04:58.714Z,3.20
2023-01-28T12:07:34.969Z,3.00
2023-01-28T12:10:08.323Z,7.00
2023-01-28T12:12:44.643Z,4.80
2023-01-28T12:15:27.846Z,3.60
2023-01-28T12:18:03.820Z,3.00
2023-01-28T12:20:32.692Z,1.00
2023-01-28T12:23:15.348Z,6.00
2023-01-28T12:25:51.397Z,4.40
2023-01-28T12:28:30.567Z,4.80
2023-01-28T12:31:15.031Z,4.40
2023-01-28T12:33:55.359Z,4.00
2023-01-28T12:36:30.861Z,4.00
2023-01-28T12:39:04.818Z,6.00
2023-01-28T12:41:35.639Z,2.60
2023-01-28T12:44:04.320Z,3.00
2023-01-28T12:46:38.460Z,4.80
2023-01-28T12:49:07.674Z,7.00
2023-01-28T12:51:39.984Z,7.00
2023-01-28T12:54:11.651Z,5.20
2023-01-28T12:56:41.960Z,4.80
2023-01-28T12:59:12.815Z,6.00
2023-01-28T13:01:42.903Z,1.00
2023-01-28T13:04:13.761Z,4.80
2023-01-28T13:06:43.530Z,3.40
2023-01-28T13:09:15.383Z,6.00
2023-01-28T13:11:44.755Z,7.00
2023-01-28T13:14:12.805Z,2.60
2023-01-28T13:16:40.853Z,4.40
2023-01-28T13:19:10.683Z,6.00
2023-01-28T13:21:49.077Z,6.80
2023-01-28T13:24:25.850Z,3.20
2023-01-28T13:26:56.563Z,6.00
2023-01-28T13:29:31.974Z,3.80
2023-01-28T13:32:00.987Z,5.80
2023-01-28T13:34:34.556Z,2.60
2023-01-28T13:37:06.022Z,1.80
2023-01-28T13:39:35.656Z,4.00
2023-01-28T13:42:21.372Z,4.00
2023-01-28T13:44:49.958Z,4.40
2023-01-28T13:47:23.229Z,3.80
2023-01-28T13:49:52.448Z,4.00
2023-01-28T13:52:26.879Z,2.20
2023-01-28T13:54:57.300Z,4.00
2023-01-28T13:58:08.100Z,3.00
2023-01-28T14:00:38.526Z,3.00
2023-01-28T14:03:41.998Z,4.00
2023-01-28T14:06:43.876Z,4.00
2023-01-28T14:09:30.442Z,3.60
2023-01-28T14:12:22.607Z,3.20
2023-01-28T14:15:37.713Z,3.00
2023-01-28T14:18:06.039Z,3.00
2023-01-28T14:20:45.412Z,3.00
2023-01-28T14:23:19.022Z,5.20
2023-01-28T14:25:59.538Z,5.60
2023-01-28T14:28:41.049Z,3.80
2023-01-28T14:31:13.139Z,3.60
2023-01-28T14:33:41.282Z,4.40
2023-01-28T14:36:11.497Z,6.20
2023-01-28T14:38:41.179Z,7.40
2023-01-28T14:41:09.520Z,1.00
2023-01-28T14:43:38.108Z,3.40
2023-01-28T14:46:14.061Z,8.00
2023-01-28T14:48:46.034Z,6.00
2023-01-28T14:51:24.899Z,2.60
2023-01-28T14:54:13.264Z,5.80
2023-01-28T14:56:49.863Z,1.00
2023-01-28T14:59:23.173Z,4.80
2023-01-28T15:01:58.815Z,6.00
2023-01-28T15:04:28.559Z,3.80
2023-01-28T15:06:56.643Z,5.20
2023-01-28T15:09:24.743Z,6.00
2023-01-28T15:11:54.849Z,5.00
2023-01-28T15:14:29.757Z,4.00
2023-01-28T15:16:59.241Z,3.60
2023-01-28T15:19:29.089Z,6.20
2023-01-28T15:21:57.439Z,4.00
2023-01-28T15:24:25.502Z,3.00
2023-01-28T15:26:53.546Z,3.00
2023-01-28T15:29:28.327Z,3.80
2023-01-28T15:31:56.427Z,4.00
2023-01-28T15:34:30.690Z,4.40
2023-01-28T15:36:58.761Z,4.00
2023-01-28T15:39:27.647Z,6.40
2023-01-28T15:41:57.120Z,3.80
2023-01-28T15:44:29.597Z,1.40
2023-01-28T15:46:58.022Z,6.40
2023-01-28T15:49:27.976Z,3.80
2023-01-28T15:51:56.001Z,1.00
2023-01-28T15:54:24.911Z,4.00
2023-01-28T15:56:54.463Z,7.00
2023-01-28T15:59:28.410Z,6.00
2023-01-28T16:02:19.477Z,5.20
2023-01-28T16:05:00.695Z,4.40
2023-01-28T16:07:30.620Z,6.40
2023-01-28T16:09:59.919Z,4.00
2023-01-28T16:12:29.402Z,4.00
2023-01-28T16:14:59.029Z,2.20
2023-01-28T16:17:28.333Z,6.40
2023-01-28T16:19:59.961Z,1.80
2023-01-28T16:22:33.623Z,4.00
2023-01-28T16:25:04.026Z,6.60
2023-01-28T16:27:32.677Z,4.00
2023-01-28T16:30:01.323Z,6.60
2023-01-28T16:32:30.640Z,4.00
2023-01-28T16:35:00.118Z,9.00
2023-01-28T16:37:28.276Z,7.40
2023-01-28T16:39:58.116Z,3.40
2023-01-28T16:42:38.987Z,5.50
2023-01-28T16:45:11.379Z,7.00
2023-01-28T16:47:39.748Z,6.80
2023-01-28T16:50:11.746Z,3.75
2023-01-28T16:52:41.826Z,7.25
2023-01-28T16:55:12.382Z,7.00
2023-01-28T16:57:40.661Z,9.00
2023-01-28T17:00:17.037Z,6.50
2023-01-28T17:02:47.396Z,6.25
2023-01-28T17:05:18.211Z,5.80
2023-01-28T17:07:48.651Z,6.00
2023-01-28T17:10:16.976Z,3.60
2023-01-28T17:12:45.012Z,6.00
2023-01-28T17:15:13.329Z,7.00
2023-01-28T17:17:41.291Z,9.00
2023-01-28T17:20:10.990Z,4.50
2023-01-28T17:22:40.451Z,5.50
2023-01-28T17:25:09.463Z,8.00
2023-01-28T17:27:37.554Z,3.00
2023-01-28T17:30:06.503Z,7.50
2023-01-28T17:32:34.694Z,6.75
2023-01-28T17:35:03.047Z,11.00
2023-01-28T17:37:33.166Z,9.00
2023-01-28T17:40:03.180Z,7.00
2023-01-28T17:42:37.169Z,10.00
2023-01-28T17:45:05.954Z,7.00
2023-01-28T17:47:34.343Z,7.50
2023-01-28T17:50:03.038Z,8.00
2023-01-28T17:52:31.125Z,3.50
2023-01-28T17:55:02.247Z,6.00
2023-01-28T17:57:30.342Z,10.50
2023-01-28T17:59:58.556Z,7.50
2023-01-28T18:02:26.749Z,8.00
2023-01-28T18:04:56.077Z,11.00
2023-01-28T18:07:25.500Z,3.50
2023-01-28T18:09:57.096Z,8.00
2023-01-28T18:12:26.560Z,9.00
2023-01-28T18:14:54.660Z,9.00
2023-01-28T18:17:32.944Z,4.50
2023-01-28T18:20:01.151Z,10.50
2023-01-28T18:22:31.652Z,8.00
2023-01-28T18:24:59.739Z,9.00
2023-01-28T18:27:32.564Z,6.25
2023-01-28T18:30:01.122Z,11.50
2023-01-28T18:32:29.199Z,10.50
2023-01-28T18:34:57.224Z,10.00
2023-01-28T18:37:28.847Z,10.00
2023-01-28T18:39:57.456Z,9.00
2023-01-28T18:42:26.091Z,4.50
2023-01-28T18:44:55.499Z,12.00
2023-01-28T18:47:23.532Z,9.00
2023-01-28T18:49:51.567Z,11.00
2023-01-28T18:52:20.237Z,5.50
2023-01-28T18:54:50.460Z,13.00
2023-01-28T18:57:20.559Z,3.00
2023-01-28T18:59:49.571Z,12.50
2023-01-28T19:02:20.059Z,4.75
2023-01-28T19:04:48.541Z,13.75
2023-01-28T19:07:16.588Z,7.00
2023-01-28T19:09:44.753Z,11.00
2023-01-28T19:12:13.031Z,10.50
2023-01-28T19:14:41.508Z,7.50
2023-01-28T19:17:10.047Z,6.00
2023-01-28T19:19:40.624Z,10.00
2023-01-28T19:22:10.239Z,12.50
2023-01-28T19:24:38.611Z,12.25
2023-01-28T19:27:08.963Z,15.00
2023-01-28T19:29:37.260Z,12.25
2023-01-28T19:32:05.714Z,10.00
2023-01-28T19:34:35.375Z,13.25
2023-01-28T19:37:05.131Z,15.25
2023-01-28T19:39:33.313Z,12.50
2023-01-28T19:42:02.350Z,3.50
2023-01-28T19:44:30.389Z,19.00
2023-01-28T19:46:58.427Z,13.50
2023-01-28T19:49:26.439Z,14.75
2023-01-28T19:51:54.590Z,13.00
2023-01-28T19:54:23.987Z,8.75
2023-01-28T19:56:52.778Z,17.00
2023-01-28T19:59:20.811Z,18.00
2023-01-28T20:01:48.917Z,19.75
2023-01-28T20:04:17.081Z,10.00
2023-01-28T20:06:45.133Z,14.75
2023-01-28T20:09:15.864Z,6.25
2023-01-28T20:11:45.275Z,16.00
2023-01-28T20:14:15.033Z,15.50
2023-01-28T20:16:43.144Z,18.00
2023-01-28T20:19:14.734Z,13.75
2023-01-28T20:21:42.779Z,18.50
2023-01-28T20:24:11.992Z,16.00
2023-01-28T20:26:40.573Z,8.00
2023-01-28T20:29:11.025Z,12.25
2023-01-28T20:31:39.486Z,13.25
2023-01-28T20:34:07.710Z,7.50
2023-01-28T20:36:35.769Z,16.50
2023-01-28T20:39:04.545Z,17.00
2023-01-28T20:41:32.752Z,9.50
2023-01-28T20:44:00.781Z,6.00
2023-01-28T20:46:31.066Z,14.50
2023-01-28T20:49:00.550Z,15.25
2023-01-28T20:51:29.636Z,13.25
2023-01-28T20:53:58.265Z,17.50
2023-01-28T20:56:26.505Z,17.25
2023-01-28T20:58:55.762Z,13.00
2023-01-28T21:01:24.775Z,13.00
2023-01-28T21:03:54.245Z,11.00
2023-01-28T21:06:22.399Z,13.00
2023-01-28T21:08:51.514Z,10.00
2023-01-28T21:11:19.672Z,14.50
2023-01-28T21:13:47.989Z,13.50
2023-01-28T21:16:21.064Z,13.50
2023-01-28T21:18:53.691Z,16.75
2023-01-28T21:21:24.000Z,16.25
2023-01-28T21:23:54.699Z,19.50
2023-01-28T21:26:22.926Z,13.75
2023-01-28T21:28:51.042Z,22.50
2023-01-28T21:31:20.129Z,27.33
2023-01-28T21:33:50.524Z,19.50
2023-01-28T21:36:18.585Z,20.25
2023-01-28T21:38:51.776Z,16.67
2023-01-28T21:41:20.260Z,22.67
2023-01-28T21:43:53.416Z,7.00
2023-01-28T21:46:21.727Z,16.00
2023-01-28T21:48:49.934Z,21.00
2023-01-28T21:51:35.268Z,21.25
2023-01-28T21:54:05.175Z,21.75
2023-01-28T21:56:33.833Z,17.25
2023-01-28T21:59:19.170Z,18.25
2023-01-28T22:01:47.667Z,16.00
2023-01-28T22:04:15.704Z,20.25
2023-01-28T22:06:47.197Z,15.00
2023-01-28T22:09:16.889Z,23.00
2023-01-28T22:11:45.541Z,14.75
2023-01-28T22:14:13.625Z,14.00
2023-01-28T22:16:41.753Z,17.50
2023-01-28T22:19:09.863Z,15.50
2023-01-28T22:21:41.315Z,10.75
2023-01-28T22:24:10.995Z,9.00
2023-01-28T22:26:40.461Z,10.00
2023-01-28T22:29:09.480Z,16.00
2023-01-28T22:31:37.709Z,13.00
2023-01-28T22:34:05.899Z,15.50
2023-01-28T22:36:37.328Z,18.25
2023-01-28T22:39:06.254Z,18.75
2023-01-28T22:41:34.500Z,16.00
2023-01-28T22:44:05.689Z,14.00
2023-01-28T22:46:34.786Z,15.00
2023-01-28T22:49:03.244Z,17.00
2023-01-28T22:51:32.043Z,9.75
2023-01-28T22:54:00.410Z,10.00
2023-01-28T22:56:29.424Z,7.50
2023-01-28T22:58:57.672Z,15.00
2023-01-28T23:01:27.350Z,15.00
2023-01-28T23:03:56.200Z,11.00
2023-01-28T23:06:25.258Z,16.50
2023-01-28T23:08:54.395Z,15.75
2023-01-28T23:11:28.809Z,13.00
2023-01-28T23:14:15.267Z,12.25
2023-01-28T23:17:02.420Z,11.00
2023-01-28T23:19:48.695Z,12.50
2023-01-28T23:22:36.126Z,10.00
2023-01-28T23:25:09.019Z,15.00
2023-01-28T23:27:41.462Z,12.00
2023-01-28T23:30:13.820Z,9.25
2023-01-28T23:32:45.188Z,14.50
2023-01-28T23:35:13.345Z,9.25
2023-01-28T23:37:41.657Z,10.00
2023-01-28T23:40:10.964Z,6.75
2023-01-28T23:42:38.981Z,14.00
2023-01-28T23:45:08.201Z,14.50
2023-01-28T23:47:37.036Z,3.00
2023-01-28T23:50:07.041Z,13.50
2023-01-28T23:52:35.054Z,12.50
2023-01-28T23:55:03.168Z,7.25
2023-01-28T23:57:31.331Z,15.25
2023-01-28T23:59:59.283Z,8.00
